createdAt,value
2023-02-16T00:00:02.205Z,1009.53
2023-02-16T00:05:02.068Z,1009.43
2023-02-16T00:10:01.729Z,1009.43
2023-02-16T00:20:01.787Z,1009.36
2023-02-16T00:25:01.694Z,1009.3
2023-02-16T00:30:02.033Z,1009.28
2023-02-16T00:35:01.433Z,1009.29
2023-02-16T00:40:01.530Z,1009.2
2023-02-16T00:45:01.792Z,1009.15
2023-02-16T00:50:01.486Z,1009.13
2023-02-16T00:55:01.806Z,1009.21
2023-02-16T01:00:02.106Z,1009.2
2023-02-16T01:05:01.424Z,1009.21
2023-02-16T01:10:02.236Z,1009.16
2023-02-16T01:15:01.650Z,1009.13
2023-02-16T01:20:01.771Z,1009.08
2023-02-16T01:25:01.678Z,1009.07
2023-02-16T01:30:01.681Z,1008.98
2023-02-16T01:35:01.481Z,1008.99
2023-02-16T01:40:02.138Z,1009.03
2023-02-16T01:45:01.555Z,1008.96
2023-02-16T01:50:03.412Z,1008.91
2023-02-16T01:55:02.009Z,1008.9
2023-02-16T02:00:02.140Z,1008.84
2023-02-16T02:05:01.421Z,1008.74
2023-02-16T02:10:01.917Z,1008.83
2023-02-16T02:15:01.443Z,1008.88
2023-02-16T02:20:01.796Z,1008.85
2023-02-16T02:25:02.095Z,1008.8
2023-02-16T02:30:01.850Z,1008.81
2023-02-16T02:35:02.261Z,1008.82
2023-02-16T02:40:02.082Z,1008.71
2023-02-16T02:45:01.438Z,1008.73
2023-02-16T02:50:01.997Z,1008.73
2023-02-16T02:55:01.805Z,1008.69
2023-02-16T03:00:02.156Z,1008.68
2023-02-16T03:05:01.561Z,1008.63
2023-02-16T03:10:01.998Z,1008.66
2023-02-16T03:15:01.539Z,1008.59
2023-02-16T03:20:02.041Z,1008.61
2023-02-16T03:25:01.439Z,1008.53
2023-02-16T03:30:01.632Z,1008.49
2023-02-16T03:35:01.941Z,1008.52
2023-02-16T03:40:02.037Z,1008.41
2023-02-16T03:45:01.942Z,1008.41
2023-02-16T03:50:02.009Z,1008.34
2023-02-16T03:55:01.680Z,1008.3
2023-02-16T04:00:01.720Z,1008.43
2023-02-16T04:05:01.616Z,1008.49
2023-02-16T04:10:01.902Z,1008.53
2023-02-16T04:15:01.923Z,1008.43
2023-02-16T04:20:01.964Z,1008.46
2023-02-16T04:25:01.887Z,1008.4
2023-02-16T04:30:02.000Z,1008.37
2023-02-16T04:35:01.554Z,1008.43
2023-02-16T04:40:02.189Z,1008.48
2023-02-16T04:45:01.497Z,1008.43
2023-02-16T04:50:02.067Z,1008.43
2023-02-16T04:55:02.320Z,1008.43
2023-02-16T05:00:01.725Z,1008.31
2023-02-16T05:05:01.613Z,1008.2
2023-02-16T05:10:01.777Z,1008.41
2023-02-16T05:15:01.779Z,1008.3
2023-02-16T05:20:02.290Z,1008.39
2023-02-16T05:25:01.470Z,1008.32
2023-02-16T05:30:01.737Z,1008.31
2023-02-16T05:35:02.160Z,1008.37
2023-02-16T05:40:01.483Z,1008.32
2023-02-16T05:45:01.854Z,1008.34
2023-02-16T05:50:01.812Z,1008.34
2023-02-16T05:55:01.803Z,1008.32
2023-02-16T06:00:01.454Z,1008.31
2023-02-16T06:05:02.040Z,1008.47
2023-02-16T06:10:01.777Z,1008.44
2023-02-16T06:15:02.271Z,1008.39
2023-02-16T06:20:01.518Z,1008.32
2023-02-16T06:25:01.744Z,1008.36
2023-02-16T06:30:02.049Z,1008.52
2023-02-16T06:35:02.215Z,1008.48
2023-02-16T06:40:02.085Z,1008.5
2023-02-16T06:45:01.661Z,1008.51
2023-02-16T06:50:02.193Z,1008.55
2023-02-16T06:55:02.054Z,1008.69
2023-02-16T07:00:02.063Z,1008.62
2023-02-16T07:05:12.213Z,1008.63
2023-02-16T07:10:02.056Z,1008.61
2023-02-16T07:15:01.891Z,1008.66
2023-02-16T07:20:01.451Z,1008.64
2023-02-16T07:25:01.750Z,1008.63
2023-02-16T07:30:11.516Z,1008.61
2023-02-16T07:35:01.652Z,1008.61
2023-02-16T07:40:01.591Z,1008.6
2023-02-16T07:45:11.962Z,1008.6
2023-02-16T07:50:02.116Z,1008.61
2023-02-16T07:55:11.888Z,1008.65
2023-02-16T08:00:01.622Z,1008.61
2023-02-16T08:05:01.600Z,1008.46
2023-02-16T08:10:01.643Z,1008.48
2023-02-16T08:15:01.346Z,1008.49
2023-02-16T08:20:01.821Z,1008.47
2023-02-16T08:25:01.675Z,1008.55
2023-02-16T08:30:01.716Z,1008.45
2023-02-16T08:35:01.967Z,1008.51
2023-02-16T08:40:11.965Z,1008.52
2023-02-16T08:45:01.850Z,1008.57
2023-02-16T08:50:02.156Z,1008.56
2023-02-16T08:55:01.823Z,1008.55
2023-02-16T09:00:01.914Z,1008.67
2023-02-16T09:05:16.509Z,1008.64
2023-02-16T09:10:01.591Z,1008.53
2023-02-16T09:15:01.481Z,1008.56
2023-02-16T09:20:01.699Z,1008.61
2023-02-16T09:25:01.749Z,1008.64
2023-02-16T09:30:01.847Z,1008.68
2023-02-16T09:35:01.810Z,1008.68
2023-02-16T09:40:01.868Z,1008.67
2023-02-16T09:45:02.213Z,1008.67
2023-02-16T09:50:01.848Z,1008.7
2023-02-16T09:55:16.837Z,1008.7
2023-02-16T10:00:01.681Z,1008.71
2023-02-16T10:05:07.187Z,1008.73
2023-02-16T10:10:01.835Z,1008.72
2023-02-16T10:15:01.770Z,1008.83
2023-02-16T10:20:01.791Z,1008.8
2023-02-16T10:25:01.905Z,1008.86
2023-02-16T10:30:01.802Z,1008.91
2023-02-16T10:35:01.960Z,1008.96
2023-02-16T10:40:06.828Z,1008.98
2023-02-16T10:45:02.059Z,1008.91
2023-02-16T10:50:02.124Z,1008.98
2023-02-16T10:55:02.170Z,1008.98
2023-02-16T11:00:16.573Z,1008.88
2023-02-16T11:05:01.427Z,1008.86
2023-02-16T11:10:02.001Z,1008.83
2023-02-16T11:15:02.162Z,1008.79
2023-02-16T11:20:02.368Z,1008.79
2023-02-16T11:25:16.754Z,1008.7
2023-02-16T11:30:02.155Z,1008.63
2023-02-16T11:35:02.196Z,1008.59
2023-02-16T11:40:01.272Z,1008.5
2023-02-16T11:45:01.397Z,1008.51
2023-02-16T11:50:01.460Z,1008.42
2023-02-16T11:55:01.639Z,1008.37
2023-02-16T12:00:01.727Z,1008.33
